M I D A S
Marine Information and Data Acquisition System
Tripno 1945 of the Zeeleeuw from 2010-08-25 06:32:46 to 2010-08-25 14:01:26
Back to CruiseResearch ActivitiesStationsMapUnderway DataData graphs

EquipmentUnitsComment
TimeDGPSUTC
LatitudeDGPSDM.mWGS84
LongitudeDGPSDM.mWGS84
HeadingGyrodeg 
SOGDGPSknotsSpeed over ground
COGDGPSdegCourse over ground
DepthEcho soundermeters200 kHz
Missing or incorrect values are displayed as -999
Navigation data collected by the RV Zeeleeuw from 2010-08-25 06:31:20 to 2010-08-25 14:11:02
Time Latitude Longitude Heading SOG COG Depth
2010-08-25 06:33:30 51°13.694 2°55.814 103.4 3.2 287 -999
2010-08-25 06:35:30 51°13.745 2°55.745 33.7 3 21 -999
2010-08-25 06:37:30 51°13.89 2°55.586 335.3 5.79 334 -999
2010-08-25 06:39:30 51°14.094 2°55.434 335 7.09 335 -999
2010-08-25 06:41:30 51°14.307 2°55.248 331.1 7.4 330 -999
2010-08-25 06:43:30 51°14.579 2°54.951 326.8 12.3 325 -999
2010-08-25 06:45:30 51°14.92 2°54.51 327.3 12.9 321 -999
2010-08-25 06:47:30 51°15.252 2°54.095 327.6 13 321 -999
2010-08-25 06:49:30 51°15.604 2°53.695 330.3 13 324 -999
2010-08-25 06:51:30 51°15.973 2°53.339 336.8 12.9 331 -999
2010-08-25 06:53:30 51°16.344 2°53.022 338.8 12.8 332 -999
2010-08-25 06:55:30 51°16.717 2°52.709 339.1 12.69 334 -999
2010-08-25 06:57:30 51°17.084 2°52.4 338.3 12.5 332 -999
2010-08-25 06:59:30 51°17.447 2°52.067 335.1 12.5 330 -999
2010-08-25 07:01:30 51°17.799 2°51.715 334.3 12.4 328 -999
2010-08-25 07:03:30 51°18.151 2°51.349 333.1 12.59 326 -999
2010-08-25 07:05:30 51°18.499 2°50.971 332.5 12.59 325 -999
2010-08-25 07:07:30 51°18.848 2°50.592 333.1 12.59 327 -999
2010-08-25 07:09:30 51°19.192 2°50.219 333.6 12.69 326 -999
2010-08-25 07:11:30 51°19.547 2°49.837 333 12.9 326 -999
2010-08-25 07:13:30 51°19.899 2°49.453 333.1 12.8 326 -999
2010-08-25 07:15:30 51°20.225 2°49.027 324.5 13 316 -999
2010-08-25 07:17:30 51°20.543 2°48.54 324.8 13.19 316 -999
2010-08-25 07:19:30 51°20.867 2°48.077 327.5 13 320 -999
2010-08-25 07:21:30 51°21.233 2°47.735 339.1 12.8 331 -999
2010-08-25 07:23:30 51°21.609 2°47.419 341.1 12.69 334 -999
2010-08-25 07:25:30 51°21.985 2°47.114 341.6 12.4 335 -999
2010-08-25 07:27:30 51°22.349 2°46.785 337.6 12.59 329 -999
2010-08-25 07:29:30 51°22.702 2°46.432 336 12.4 327 -999
2010-08-25 07:31:30 51°23.051 2°46.061 333.8 12.69 326 -999
2010-08-25 07:33:30 51°23.397 2°45.684 333.8 12.4 328 -999
2010-08-25 07:35:30 51°23.738 2°45.297 334.1 12.59 324 -999
2010-08-25 07:37:30 51°24.103 2°45.063 357.5 11.9 349 -999
2010-08-25 07:39:30 51°24.423 2°45.31 43.8 11.09 42 -999
2010-08-25 07:41:30 51°24.587 2°45.843 61.1 11.19 57 -999
2010-08-25 07:43:30 51°24.796 2°46.338 56.2 11.09 52 -999
2010-08-25 07:45:30 51°25.002 2°46.825 57.3 11.09 61 -999
2010-08-25 07:47:30 51°25.2 2°47.325 58.2 11.09 58 -999
2010-08-25 07:49:30 51°25.4 2°47.825 58.5 11.19 59 -999
2010-08-25 07:51:30 51°25.601 2°48.317 56.8 11 52 -999
2010-08-25 07:53:30 51°25.804 2°48.802 57.6 11.19 60 -999
2010-08-25 07:55:30 51°26.005 2°49.291 55.2 10.69 57 -999
2010-08-25 07:57:30 51°26.209 2°49.781 56.7 11.3 64 -999
2010-08-25 07:59:30 51°26.417 2°50.271 57.1 11.19 59 -999
2010-08-25 08:01:30 51°26.622 2°50.774 58.2 11.19 58 -999
2010-08-25 08:03:30 51°26.824 2°51.278 56 11.19 61 -999
2010-08-25 08:05:30 51°27.021 2°51.771 57.3 11.19 55 -999
2010-08-25 08:07:30 51°27.219 2°52.277 57.3 11.09 63 -999
2010-08-25 08:09:30 51°27.417 2°52.779 57 11.19 57 -999
2010-08-25 08:11:30 51°27.611 2°53.281 55.3 11.19 56 -999
2010-08-25 08:13:30 51°27.798 2°53.799 59.5 11 57 -999
2010-08-25 08:15:30 51°27.977 2°54.311 60 11.19 60 -999
2010-08-25 08:17:30 51°28.157 2°54.821 60.5 11 67 -999
2010-08-25 08:19:30 51°28.333 2°55.327 58.2 10.8 54 -999
2010-08-25 08:21:30 51°28.513 2°55.833 59.3 11 59 -999
2010-08-25 08:23:30 51°28.695 2°56.333 60.1 10.8 64 -999
2010-08-25 08:25:30 51°28.875 2°56.839 59.2 11.09 59 -999
2010-08-25 08:27:30 51°29.059 2°57.345 57.1 10.8 54 -999
2010-08-25 08:29:30 51°29.241 2°57.847 58.8 11.09 64 -999
2010-08-25 08:31:30 51°29.428 2°58.352 61.1 11.19 54 -999
2010-08-25 08:33:30 51°29.617 2°58.859 59.6 11.19 60 -999
2010-08-25 08:35:30 51°29.812 2°59.372 59.6 11.4 57 -999
2010-08-25 08:37:30 51°30.015 2°59.881 58.6 11.4 60 -999
2010-08-25 08:39:30 51°30.212 3°0.4 60.5 11.19 59 -999
2010-08-25 08:41:30 51°30.408 3°0.912 58.7 11.4 57 -999
2010-08-25 08:43:30 51°30.605 3°1.436 60.5 11.5 61 -999
2010-08-25 08:45:30 51°30.804 3°1.95 58 11.3 55 -999
2010-08-25 08:47:30 51°31.006 3°2.47 58.2 11.4 54 -999
2010-08-25 08:49:30 51°31.204 3°2.985 58.7 11.59 52 -999
2010-08-25 08:51:30 51°31.407 3°3.514 58.8 11.69 58 -999
2010-08-25 08:53:30 51°31.61 3°4.043 58.2 11.5 56 -999
2010-08-25 08:55:30 51°31.807 3°4.563 58.7 11.59 54 -999
2010-08-25 08:57:30 51°32.113 3°4.892 22.6 11.69 16 -999
2010-08-25 08:59:30 51°32.48 3°4.628 330.6 12.8 321 -999
2010-08-25 09:01:30 51°32.763 3°4.094 316.5 13.19 310 -999
2010-08-25 09:03:30 51°33.044 3°3.568 317.6 12.8 311 -999
2010-08-25 09:05:30 51°33.106 3°2.91 273 13.69 268 -999
2010-08-25 09:07:30 51°32.915 3°2.224 245 14.09 243 -999
2010-08-25 09:09:30 51°32.685 3°1.558 243.3 14.3 243 -999
2010-08-25 09:11:30 51°32.456 3°0.882 243.9 14.4 244 -999
2010-08-25 09:13:30 51°32.225 3°0.206 244.1 14.59 240 -999
2010-08-25 09:15:30 51°31.994 2°59.509 243 14.8 239 -999
2010-08-25 09:17:30 51°31.764 2°58.827 243.5 14.59 241 -999
2010-08-25 09:19:30 51°31.528 2°58.14 243 14.59 243 -999
2010-08-25 09:21:30 51°31.295 2°57.455 242.5 14.69 242 -999
2010-08-25 09:23:30 51°31.06 2°56.778 242.8 14.59 241 -999
2010-08-25 09:25:30 51°30.822 2°56.084 243 14.59 242 -999
2010-08-25 09:27:30 51°30.589 2°55.413 239.6 14.59 236 -999
2010-08-25 09:29:30 51°30.343 2°54.742 238.1 14.4 236 -999
2010-08-25 09:31:30 51°30.102 2°54.074 240.5 14.5 241 -999
2010-08-25 09:33:30 51°29.863 2°53.407 240.3 14.5 241 -999
2010-08-25 09:35:30 51°29.623 2°52.745 240.5 14.3 238 -999
2010-08-25 09:37:30 51°29.398 2°52.08 242 14.3 244 -999
2010-08-25 09:39:30 51°29.172 2°51.413 242.5 14.3 239 -999
2010-08-25 09:41:30 51°28.948 2°50.738 241.1 14.4 239 -999
2010-08-25 09:43:30 51°28.716 2°50.065 241.3 14.5 240 -999
2010-08-25 09:45:30 51°28.482 2°49.399 240.6 14.5 240 -999
2010-08-25 09:47:30 51°28.252 2°48.739 241 14.19 242 -999
2010-08-25 09:49:30 51°28.022 2°48.074 240.5 14.3 241 -999
2010-08-25 09:51:30 51°27.791 2°47.407 241.9 14.3 241 -999
2010-08-25 09:53:30 51°27.562 2°46.739 242 14.4 246 -999
2010-08-25 09:55:30 51°27.333 2°46.063 241.9 14.19 242 -999
2010-08-25 09:57:30 51°27.104 2°45.392 241 14.3 242 -999
2010-08-25 09:59:30 51°26.878 2°44.733 241.4 14.3 240 -999
2010-08-25 10:01:30 51°26.646 2°44.06 241.3 14.3 241 -999
2010-08-25 10:03:30 51°26.564 2°43.334 270.1 13.8 268 -999
2010-08-25 10:05:30 51°26.816 2°42.795 322.8 12.9 317 -999
2010-08-25 10:07:30 51°27.178 2°42.476 341.8 12.4 338 -999
2010-08-25 10:09:30 51°27.567 2°42.268 345.1 12.3 344 -999
2010-08-25 10:11:30 51°27.804 2°42.687 71.5 12 75 -999
2010-08-25 10:13:30 51°27.998 2°43.238 61.2 12 63 -999
2010-08-25 10:15:30 51°28.188 2°43.808 57.8 12 57 -999
2010-08-25 10:17:30 51°28.391 2°44.359 57.3 12 58 -999
2010-08-25 10:19:30 51°28.588 2°44.926 58.3 12.3 56 -999
2010-08-25 10:21:30 51°28.777 2°45.497 61.2 12.09 66 -999
2010-08-25 10:23:30 51°28.965 2°46.07 59.7 12.09 61 -999
2010-08-25 10:25:30 51°29.157 2°46.644 59.1 12.19 63 -999
2010-08-25 10:27:30 51°29.346 2°47.222 59.6 12 60 -999
2010-08-25 10:29:30 51°29.538 2°47.801 59.7 12.4 62 -999
2010-08-25 10:31:30 51°29.725 2°48.38 61.2 12.3 64 -999
2010-08-25 10:33:30 51°29.919 2°48.95 60.2 12.3 60 -999
2010-08-25 10:35:30 51°30.111 2°49.524 59.5 12.3 61 -999
2010-08-25 10:37:30 51°30.303 2°50.087 60 12.19 63 -999
2010-08-25 10:39:30 51°30.493 2°50.656 58.7 12.19 63 -999
2010-08-25 10:41:30 51°30.684 2°51.231 59.5 12.19 63 -999
2010-08-25 10:43:30 51°30.881 2°51.81 59.6 12.19 59 -999
2010-08-25 10:45:30 51°31.075 2°52.382 59.2 12.3 61 -999
2010-08-25 10:47:30 51°31.269 2°52.955 59 12.3 58 -999
2010-08-25 10:49:30 51°31.468 2°53.525 59.2 12.4 63 -999
2010-08-25 10:51:30 51°31.669 2°54.09 57.3 12.19 58 -999
2010-08-25 10:53:30 51°31.88 2°54.642 57.7 12.09 61 -999
2010-08-25 10:55:30 51°32.091 2°55.205 57 12.3 59 -999
2010-08-25 10:57:30 51°32.319 2°55.747 54.3 12.09 53 -999
2010-08-25 10:59:30 51°32.582 2°56.243 48.7 12.3 50 -999
2010-08-25 11:01:30 51°32.825 2°56.751 53.2 12.09 55 -999
2010-08-25 11:03:30 51°33.032 2°57.302 57.3 12.09 61 -999
2010-08-25 11:05:30 51°33.237 2°57.862 58.1 12.09 58 -999
2010-08-25 11:07:30 51°33.434 2°58.429 59.6 12.09 64 -999
2010-08-25 11:09:30 51°33.634 2°58.994 58.5 12.4 63 -999
2010-08-25 11:11:30 51°33.833 2°59.566 58.7 12.19 66 -999
2010-08-25 11:13:30 51°33.954 2°59.919 57.5     -999
2010-08-25 11:15:30 51°34.227 3°0.702 59.1 12.19 59 -999
2010-08-25 11:17:30 51°34.571 3°0.934 15.8 11.8 15 -999
2010-08-25 11:19:30 51°34.897 3°0.598 318.6 12.09 314 -999
2010-08-25 11:21:30 51°35.178 3°0.112 316.6 12.5 314 -999
2010-08-25 11:23:30 51°35.478 2°59.639 318.3 12.69 315 -999
2010-08-25 11:25:30 51°35.724 2°59.108 305.1 12.69 302 -999
2010-08-25 11:27:30 51°35.597 2°58.462 245.6 12.9 249 -999
2010-08-25 11:29:30 51°35.389 2°57.853 241 12.8 242 -999
2010-08-25 11:31:30 51°35.176 2°57.276 240.4 12.69 244 -999
2010-08-25 11:33:30 51°34.963 2°56.694 241.6 12.59 242 -999
2010-08-25 11:35:30 51°34.753 2°56.11 240.3 12.69 242 -999
2010-08-25 11:37:30 51°34.537 2°55.528 240.3 12.69 238 -999
2010-08-25 11:39:30 51°34.323 2°54.951 239.6 12.59 239 -999
2010-08-25 11:41:30 51°34.11 2°54.383 240 12.69 232 -999
2010-08-25 11:43:30 51°33.9 2°53.808 240.3 12.5 240 -999
2010-08-25 11:45:30 51°33.689 2°53.234 239.6 12.5 241 -999
2010-08-25 11:47:30 51°33.48 2°52.657 240.3 12.5 239 -999
2010-08-25 11:49:30 51°33.278 2°52.075 242 12.5 243 -999
2010-08-25 11:51:30 51°33.073 2°51.499 240.3 12.59 240 -999
2010-08-25 11:53:30 51°32.87 2°50.921 239.1 12.4 241 -999
2010-08-25 11:55:30 51°32.668 2°50.347 240.4 12.3 242 -999
2010-08-25 11:57:30 51°32.466 2°49.791 239.1 12.09 238 -999
2010-08-25 11:59:30 51°32.262 2°49.229 239.5 12.09 240 -999
2010-08-25 13:01:30 51°24.103 2°42.932 159.5 12.4 153 -999
2010-08-25 13:03:30 51°23.73 2°43.244 159.5 12.69 153 -999
2010-08-25 13:05:30 51°23.362 2°43.557 159.3 12.19 154 -999
2010-08-25 13:07:30 51°22.992 2°43.86 159 12.4 154 -999
2010-08-25 13:09:30 51°22.621 2°44.159 159.1 12.9 154 -999
2010-08-25 13:11:30 51°22.247 2°44.479 157 12.69 153 -999
2010-08-25 13:13:30 51°21.877 2°44.8 156.9 12.8 152 -999
2010-08-25 13:15:30 51°21.508 2°45.118 157.4 12.59 153 -999
2010-08-25 13:17:30 51°21.143 2°45.456 155.5 12.59 151 -999
2010-08-25 13:19:30 51°20.779 2°45.798 156.5 12.59 148 -999
2010-08-25 13:21:30 51°20.415 2°46.145 156.3 12.8 148 -999
2010-08-25 13:23:30 51°20.046 2°46.482 156.6 12.69 151 -999
2010-08-25 13:25:30 51°19.675 2°46.808 155.6 13.09 149 -999
2010-08-25 13:27:30 51°19.305 2°47.14 155.5 12.69 152 -999
2010-08-25 13:29:30 51°18.939 2°47.471 155.4 12.3 152 -999
2010-08-25 13:31:30 51°18.574 2°47.795 157 12.69 149 -999
2010-08-25 13:33:30 51°18.205 2°48.116 156.4 12.69 151 -999
2010-08-25 13:35:30 51°17.836 2°48.435 156.3 12.69 152 -999
2010-08-25 13:37:30 51°17.467 2°48.752 156.9 12.69 154 -999
2010-08-25 13:39:30 51°17.104 2°49.073 156 12.8 153 -999
2010-08-25 13:41:30 51°16.741 2°49.41 153.3 12.3 151 -999
2010-08-25 13:43:30 51°16.38 2°49.759 154.8 12.59 149 -999
2010-08-25 13:45:30 51°16.012 2°50.1 153.5 12.69 149 -999
2010-08-25 13:47:30 51°15.749 2°50.635 122.2 13.4 115 -999
2010-08-25 13:49:30 51°15.58 2°51.303 117.2 13.59 114 -999
2010-08-25 13:51:30 51°15.395 2°51.976 120.2 13.8 115 -999
2010-08-25 13:53:30 51°15.226 2°52.64 120.9 13.5 117 -999
2010-08-25 13:55:30 51°15.054 2°53.303 117 13.59 110 -999
2010-08-25 13:57:30 51°14.878 2°53.96 117.2 13.3 114 -999
2010-08-25 13:59:30 51°14.701 2°54.621 121.2 13.5 113 -999
2010-08-25 14:01:30 51°14.407 2°55.116 147.5 12.4 149 -999
2010-08-25 14:03:30 51°14.105 2°55.425 149.9 11 150 -999
2010-08-25 14:05:30 51°13.906 2°55.574 155.9 6.79 155 -999